createdAt,value
2017-12-23T00:00:16.893Z,1028.81
2017-12-23T00:02:09.796Z,1028.78
2017-12-23T00:03:09.806Z,1028.81
2017-12-23T00:05:02.724Z,1028.73
2017-12-23T00:06:02.723Z,1028.79
2017-12-23T00:07:55.643Z,1028.79
2017-12-23T00:08:55.660Z,1028.90
2017-12-23T00:10:48.622Z,1028.75
2017-12-23T00:11:48.615Z,1028.70
2017-12-23T00:13:41.490Z,1028.57
2017-12-23T00:14:41.510Z,1028.60
2017-12-23T00:16:34.394Z,1028.51
2017-12-23T00:17:34.404Z,1028.49
2017-12-23T00:19:27.479Z,1028.49
2017-12-23T00:20:27.482Z,1028.55
2017-12-23T00:22:20.498Z,1028.56
2017-12-23T00:23:20.447Z,1028.65
2017-12-23T00:25:13.382Z,1028.56
2017-12-23T00:26:13.383Z,1028.57
2017-12-23T00:28:06.299Z,1028.47
2017-12-23T00:29:06.290Z,1028.51
2017-12-23T00:30:59.195Z,1028.52
2017-12-23T00:31:59.213Z,1028.40
2017-12-23T00:33:52.154Z,1028.48
2017-12-23T00:34:52.138Z,1028.45
2017-12-23T00:36:45.037Z,1028.42
2017-12-23T00:37:45.091Z,1028.36
2017-12-23T00:39:37.993Z,1028.43
2017-12-23T00:40:37.960Z,1028.36
2017-12-23T00:42:30.897Z,1028.40
2017-12-23T00:43:30.920Z,1028.37
2017-12-23T00:45:23.808Z,1028.33
2017-12-23T00:46:23.789Z,1028.30
2017-12-23T00:48:16.720Z,1028.23
2017-12-23T00:49:16.759Z,1028.34
2017-12-23T00:51:10.176Z,1028.40
2017-12-23T00:52:10.156Z,1028.31
2017-12-23T00:54:03.077Z,1028.12
2017-12-23T00:55:03.073Z,1028.11
2017-12-23T00:56:56.005Z,1028.06
2017-12-23T00:57:55.990Z,1028.08
2017-12-23T00:59:48.897Z,1028.09
2017-12-23T01:00:48.909Z,1028.16
2017-12-23T01:02:41.846Z,1028.10
2017-12-23T01:03:41.827Z,1028.11
2017-12-23T01:05:34.783Z,1028.12
2017-12-23T01:06:34.762Z,1028.13
2017-12-23T01:08:27.736Z,1028.14
2017-12-23T01:09:27.782Z,1028.16
2017-12-23T01:11:20.677Z,1028.19
2017-12-23T01:12:20.668Z,1028.09
2017-12-23T01:14:13.581Z,1028.09
2017-12-23T01:15:13.584Z,1028.05
2017-12-23T01:17:06.645Z,1028.10
2017-12-23T01:18:06.496Z,1028.15
2017-12-23T01:19:59.419Z,1028.17
2017-12-23T01:20:59.425Z,1028.09
2017-12-23T01:22:52.333Z,1028.07
2017-12-23T01:23:52.336Z,1028.04
2017-12-23T01:25:45.247Z,1027.97
2017-12-23T01:26:45.246Z,1028.06
2017-12-23T01:28:38.358Z,1027.96
2017-12-23T01:29:38.359Z,1027.96
2017-12-23T01:31:31.302Z,1027.88
2017-12-23T01:32:31.290Z,1027.86
2017-12-23T01:34:24.320Z,1027.81
2017-12-23T01:35:24.238Z,1027.80
2017-12-23T01:37:17.359Z,1027.84
2017-12-23T01:38:17.374Z,1027.80
2017-12-23T01:40:10.312Z,1027.78
2017-12-23T01:41:10.292Z,1027.68
2017-12-23T01:43:03.201Z,1027.74
2017-12-23T01:44:03.211Z,1027.80
2017-12-23T01:45:56.142Z,1027.76
2017-12-23T01:46:56.127Z,1027.64
2017-12-23T01:48:49.050Z,1027.66
2017-12-23T01:49:49.042Z,1027.64
2017-12-23T01:51:42.136Z,1027.69
2017-12-23T01:52:42.110Z,1027.73
2017-12-23T01:54:35.070Z,1027.65
2017-12-23T01:55:35.080Z,1027.61
2017-12-23T01:57:28.023Z,1027.66
2017-12-23T01:58:28.007Z,1027.72
2017-12-23T02:00:20.905Z,1027.66
2017-12-23T02:01:20.919Z,1027.62
2017-12-23T02:03:15.347Z,1027.79
2017-12-23T02:04:15.363Z,1027.68
2017-12-23T02:06:08.246Z,1027.59
2017-12-23T02:07:08.248Z,1027.59
2017-12-23T02:09:01.175Z,1027.55
2017-12-23T02:10:01.172Z,1027.60
2017-12-23T02:11:54.583Z,1027.55
2017-12-23T02:12:54.577Z,1027.54
2017-12-23T02:14:47.490Z,1027.54
2017-12-23T02:15:47.491Z,1027.41
2017-12-23T02:17:40.406Z,1027.30
2017-12-23T02:18:40.416Z,1027.32
2017-12-23T02:20:33.337Z,1027.30
2017-12-23T02:21:33.347Z,1027.27
2017-12-23T02:23:26.232Z,1027.17
2017-12-23T02:24:26.254Z,1027.10
2017-12-23T02:26:19.182Z,1026.91
2017-12-23T02:27:19.166Z,1026.97
2017-12-23T02:29:12.215Z,1026.83
2017-12-23T02:30:12.228Z,1026.85
2017-12-23T02:32:05.163Z,1026.83
2017-12-23T02:33:05.157Z,1026.69
2017-12-23T02:34:58.052Z,1026.70
2017-12-23T02:35:58.114Z,1026.67
2017-12-23T02:37:51.004Z,1026.57
2017-12-23T02:38:51.005Z,1026.61
2017-12-23T02:40:43.945Z,1026.65
2017-12-23T02:41:43.920Z,1026.73
2017-12-23T02:43:37.322Z,1026.77
2017-12-23T02:44:37.347Z,1026.67
2017-12-23T02:46:30.488Z,1026.61
2017-12-23T02:47:30.487Z,1026.64
2017-12-23T02:49:23.395Z,1026.73
2017-12-23T02:50:23.408Z,1026.66
2017-12-23T02:52:16.316Z,1026.62
2017-12-23T02:53:16.317Z,1026.65
2017-12-23T02:55:09.231Z,1026.55
2017-12-23T02:56:09.235Z,1026.63
2017-12-23T02:58:02.147Z,1026.70
2017-12-23T02:59:02.144Z,1026.60
2017-12-23T03:00:55.071Z,1026.62
2017-12-23T03:01:55.067Z,1026.61
2017-12-23T03:03:47.963Z,1026.67
2017-12-23T03:04:47.974Z,1026.83
2017-12-23T03:06:40.919Z,1026.65
2017-12-23T03:07:40.895Z,1026.74
2017-12-23T03:09:34.800Z,1026.57
2017-12-23T03:10:34.803Z,1026.63
2017-12-23T03:12:27.704Z,1026.55
2017-12-23T03:13:27.717Z,1026.60
2017-12-23T03:15:20.618Z,1026.55
2017-12-23T03:16:20.622Z,1026.52
2017-12-23T03:18:13.518Z,1026.32
2017-12-23T03:19:13.528Z,1026.30
2017-12-23T03:21:06.449Z,1026.24
2017-12-23T03:22:06.436Z,1026.24
2017-12-23T03:23:59.338Z,1026.28
2017-12-23T03:24:59.345Z,1026.15
2017-12-23T03:26:52.257Z,1026.29
2017-12-23T03:27:52.261Z,1026.19
2017-12-23T03:29:45.157Z,1026.23
2017-12-23T03:30:45.172Z,1026.15
2017-12-23T03:32:38.087Z,1026.06
2017-12-23T03:33:38.084Z,1025.98
2017-12-23T03:35:30.979Z,1025.95
2017-12-23T03:36:30.994Z,1025.97
2017-12-23T03:38:23.907Z,1025.91
2017-12-23T03:39:23.903Z,1025.91
2017-12-23T03:41:16.823Z,1026.02
2017-12-23T03:42:16.818Z,1025.80
2017-12-23T03:44:09.739Z,1025.84
2017-12-23T03:45:09.735Z,1025.86
2017-12-23T03:47:02.629Z,1025.77
2017-12-23T03:48:02.644Z,1025.64
2017-12-23T03:49:55.556Z,1025.59
2017-12-23T03:50:55.560Z,1025.51
2017-12-23T03:52:48.471Z,1025.51
2017-12-23T03:53:48.485Z,1025.48
2017-12-23T03:55:41.908Z,1025.34
2017-12-23T03:56:41.895Z,1025.27
2017-12-23T03:58:34.813Z,1025.31
2017-12-23T03:59:34.827Z,1025.39
2017-12-23T04:01:27.753Z,1025.44
2017-12-23T04:02:27.729Z,1025.46
2017-12-23T04:04:20.860Z,1025.48
2017-12-23T04:05:20.861Z,1025.45
2017-12-23T04:07:13.805Z,1025.50
2017-12-23T04:08:13.799Z,1025.47
2017-12-23T04:10:06.745Z,1025.30
2017-12-23T04:11:06.747Z,1025.26
2017-12-23T04:12:59.714Z,1025.17
2017-12-23T04:13:59.716Z,1025.20
2017-12-23T04:15:52.603Z,1025.23
2017-12-23T04:16:52.618Z,1025.19
2017-12-23T04:18:45.533Z,1025.18
2017-12-23T04:19:45.539Z,1025.09
2017-12-23T04:21:38.667Z,1025.04
2017-12-23T04:22:38.656Z,1025.01
2017-12-23T04:24:31.567Z,1025.07
2017-12-23T04:25:31.582Z,1024.97
2017-12-23T04:27:24.490Z,1024.91
2017-12-23T04:28:24.550Z,1024.92
2017-12-23T04:30:17.399Z,1024.87
2017-12-23T04:31:17.407Z,1024.92
2017-12-23T04:33:10.317Z,1024.91
2017-12-23T04:34:10.322Z,1024.82
2017-12-23T04:36:03.234Z,1024.90
2017-12-23T04:37:03.232Z,1024.86
2017-12-23T04:38:56.366Z,1024.87
2017-12-23T04:39:56.366Z,1024.89
2017-12-23T04:41:49.257Z,1024.82
2017-12-23T04:42:49.279Z,1024.93
2017-12-23T04:44:42.194Z,1025.18
2017-12-23T04:45:42.200Z,1024.86
2017-12-23T04:47:35.088Z,1024.62
2017-12-23T04:48:35.103Z,1024.69
2017-12-23T04:50:28.041Z,1024.60
2017-12-23T04:51:28.011Z,1024.68
2017-12-23T04:53:20.926Z,1024.64
2017-12-23T04:54:20.924Z,1024.75
2017-12-23T04:56:13.838Z,1024.59
2017-12-23T04:57:13.828Z,1024.54
2017-12-23T04:59:07.423Z,1024.53
2017-12-23T05:00:07.515Z,1024.47
2017-12-23T05:02:00.369Z,1024.48
2017-12-23T05:03:00.376Z,1024.45
2017-12-23T05:04:53.253Z,1024.57
2017-12-23T05:05:53.279Z,1024.43
2017-12-23T05:07:46.206Z,1024.36
2017-12-23T05:08:46.186Z,1024.33
2017-12-23T05:10:39.287Z,1024.32
2017-12-23T05:11:39.303Z,1024.30
2017-12-23T05:13:32.222Z,1024.26
2017-12-23T05:14:32.224Z,1024.28
2017-12-23T05:16:25.178Z,1024.22
2017-12-23T05:17:25.148Z,1024.28
2017-12-23T05:19:18.040Z,1024.28
2017-12-23T05:20:18.060Z,1024.35
2017-12-23T05:22:10.970Z,1024.27
2017-12-23T05:23:10.972Z,1024.39
2017-12-23T05:25:03.886Z,1024.33
2017-12-23T05:26:03.885Z,1024.26
2017-12-23T05:27:56.800Z,1024.21
2017-12-23T05:28:56.805Z,1024.20
2017-12-23T05:30:49.750Z,1024.29
2017-12-23T05:31:49.721Z,1024.18
2017-12-23T05:33:42.764Z,1024.13
2017-12-23T05:34:42.773Z,1024.11
2017-12-23T05:36:35.698Z,1024.14
2017-12-23T05:37:35.696Z,1024.06
2017-12-23T05:39:28.638Z,1024.13
2017-12-23T05:40:28.616Z,1024.07
2017-12-23T05:42:21.507Z,1024.14
2017-12-23T05:43:21.522Z,1023.99
2017-12-23T05:45:14.450Z,1024.00
2017-12-23T05:46:14.441Z,1024.00
2017-12-23T05:48:07.356Z,1023.86
2017-12-23T05:49:07.353Z,1023.98
2017-12-23T05:51:00.296Z,1023.92
2017-12-23T05:52:00.301Z,1023.85
2017-12-23T05:53:53.167Z,1023.83
2017-12-23T05:54:53.188Z,1023.74
2017-12-23T05:56:46.114Z,1023.81
2017-12-23T05:57:46.099Z,1023.73
2017-12-23T05:59:38.995Z,1023.67
2017-12-23T06:00:39.011Z,1023.60
2017-12-23T06:02:31.960Z,1023.58
2017-12-23T06:03:31.926Z,1023.66
2017-12-23T06:05:24.830Z,1023.58
2017-12-23T06:06:24.851Z,1023.48
2017-12-23T06:08:17.797Z,1023.45
2017-12-23T06:09:17.761Z,1023.57
2017-12-23T06:11:10.686Z,1023.41
2017-12-23T06:12:10.676Z,1023.42
2017-12-23T06:14:03.625Z,1023.54
2017-12-23T06:15:03.591Z,1023.58
2017-12-23T06:16:56.520Z,1023.47
2017-12-23T06:17:56.506Z,1023.50
2017-12-23T06:19:49.506Z,1023.50
2017-12-23T06:20:49.421Z,1023.40
2017-12-23T06:22:42.388Z,1023.60
2017-12-23T06:23:42.342Z,1023.64
2017-12-23T06:25:35.249Z,1023.41
2017-12-23T06:26:35.248Z,1023.36
2017-12-23T06:28:28.166Z,1023.42
2017-12-23T06:29:28.163Z,1023.43
2017-12-23T06:31:21.075Z,1023.33
2017-12-23T06:32:21.111Z,1023.27
2017-12-23T06:34:13.981Z,1023.23
2017-12-23T06:35:13.998Z,1023.09
2017-12-23T06:37:06.922Z,1023.09
2017-12-23T06:38:06.918Z,1023.24
2017-12-23T06:39:59.847Z,1023.02
2017-12-23T06:40:59.826Z,1023.18
2017-12-23T06:42:53.227Z,1023.18
2017-12-23T06:43:53.248Z,1022.96
2017-12-23T06:45:46.167Z,1022.96
2017-12-23T06:46:46.163Z,1022.95
2017-12-23T06:48:39.082Z,1022.88
2017-12-23T06:49:39.082Z,1023.29
2017-12-23T06:51:32.017Z,1022.85
2017-12-23T06:52:32.002Z,1022.96
2017-12-23T06:54:24.941Z,1022.85
2017-12-23T06:55:24.917Z,1022.89
2017-12-23T06:57:17.831Z,1022.95
2017-12-23T06:58:17.840Z,1022.81
2017-12-23T07:00:10.747Z,1022.89
2017-12-23T07:01:10.748Z,1022.93
2017-12-23T07:03:03.649Z,1023.53
2017-12-23T07:04:03.661Z,1023.15
2017-12-23T07:05:56.592Z,1023.11
2017-12-23T07:06:56.576Z,1023.27
2017-12-23T07:08:49.494Z,1023.17
2017-12-23T07:09:49.501Z,1023.32
2017-12-23T07:11:42.431Z,1023.32
2017-12-23T07:12:42.421Z,1023.26
2017-12-23T07:14:35.319Z,1023.27
2017-12-23T07:15:35.382Z,1023.20
2017-12-23T07:17:28.272Z,1023.15
2017-12-23T07:18:28.250Z,1023.10
2017-12-23T07:20:21.154Z,1023.19
2017-12-23T07:21:21.168Z,1023.38
2017-12-23T07:23:14.079Z,1023.19
2017-12-23T07:24:14.085Z,1023.11
2017-12-23T07:26:07.009Z,1023.17
2017-12-23T07:27:07.024Z,1023.06
2017-12-23T07:29:00.138Z,1023.08
2017-12-23T07:30:00.152Z,1023.15
2017-12-23T07:31:53.088Z,1023.24
2017-12-23T07:32:53.104Z,1023.02
2017-12-23T07:34:46.032Z,1023.10
2017-12-23T07:35:46.016Z,1023.06
2017-12-23T07:37:38.928Z,1023.05
2017-12-23T07:38:38.960Z,1023.15
2017-12-23T07:40:31.874Z,1022.97
2017-12-23T07:41:31.866Z,1022.99
2017-12-23T07:43:24.765Z,1023.07
2017-12-23T07:44:24.781Z,1023.00
2017-12-23T07:46:17.698Z,1023.25
2017-12-23T07:47:17.769Z,1023.15
2017-12-23T07:49:10.608Z,1023.34
2017-12-23T07:50:10.631Z,1023.33
2017-12-23T07:52:03.535Z,1023.33
2017-12-23T07:53:03.563Z,1023.27
2017-12-23T07:54:56.462Z,1023.19
2017-12-23T07:55:56.468Z,1023.26
2017-12-23T07:57:49.519Z,1023.21
2017-12-23T07:58:49.515Z,1023.41
2017-12-23T08:00:42.449Z,1023.22
2017-12-23T08:01:42.450Z,1023.26
2017-12-23T08:03:35.360Z,1023.18
2017-12-23T08:04:35.356Z,1023.50
2017-12-23T08:06:28.268Z,1023.32
2017-12-23T08:07:28.275Z,1023.50
2017-12-23T08:09:21.387Z,1023.63
2017-12-23T08:10:21.381Z,1023.41
2017-12-23T08:12:14.310Z,1023.52
2017-12-23T08:13:14.322Z,1023.37
2017-12-23T08:15:07.743Z,1023.26
2017-12-23T08:16:07.745Z,1023.31
2017-12-23T08:18:00.676Z,1023.31
2017-12-23T08:19:00.682Z,1023.14
2017-12-23T08:20:53.588Z,1023.31
2017-12-23T08:21:53.595Z,1023.14
2017-12-23T08:23:47.162Z,1023.17
2017-12-23T08:24:47.182Z,1023.21
2017-12-23T08:26:40.222Z,1022.99
2017-12-23T08:27:40.210Z,1022.96
2017-12-23T08:29:33.146Z,1022.80
2017-12-23T08:30:33.151Z,1022.87
2017-12-23T08:32:26.072Z,1023.19
2017-12-23T08:33:26.076Z,1022.84
2017-12-23T08:35:19.010Z,1023.22
2017-12-23T08:36:18.994Z,1023.26
2017-12-23T08:38:11.890Z,1023.06
2017-12-23T08:39:11.907Z,1023.27
2017-12-23T08:41:04.825Z,1022.99
2017-12-23T08:42:04.827Z,1022.94
2017-12-23T08:43:57.739Z,1023.03
2017-12-23T08:44:57.784Z,1023.21
2017-12-23T08:46:50.700Z,1023.19
2017-12-23T08:47:50.662Z,1023.30
2017-12-23T08:49:43.591Z,1023.22
2017-12-23T08:50:43.583Z,1023.31
2017-12-23T08:52:36.712Z,1023.30
2017-12-23T08:53:36.721Z,1023.45
2017-12-23T08:55:29.658Z,1023.32
2017-12-23T08:56:29.684Z,1023.27
2017-12-23T08:58:22.651Z,1023.33
2017-12-23T08:59:22.843Z,1023.20
2017-12-23T09:01:15.788Z,1023.38
2017-12-23T09:02:15.758Z,1023.26
2017-12-23T09:04:08.755Z,1023.29
2017-12-23T09:05:08.744Z,1023.26
2017-12-23T09:07:01.656Z,1023.26
2017-12-23T09:08:01.670Z,1023.33
2017-12-23T09:09:55.247Z,1023.32
2017-12-23T09:10:55.244Z,1023.32
2017-12-23T09:12:48.192Z,1023.31
2017-12-23T09:13:48.190Z,1023.19
2017-12-23T09:15:41.157Z,1023.30
2017-12-23T09:16:41.154Z,1023.22
2017-12-23T09:18:34.090Z,1023.16
2017-12-23T09:19:34.081Z,1023.44
2017-12-23T09:21:26.993Z,1023.22
2017-12-23T09:22:26.987Z,1023.37
2017-12-23T09:24:19.919Z,1023.26
2017-12-23T09:25:19.906Z,1023.56
2017-12-23T09:27:12.863Z,1023.15
2017-12-23T09:28:12.831Z,1023.17
2017-12-23T09:30:05.731Z,1023.43
2017-12-23T09:31:05.750Z,1023.09
2017-12-23T09:32:58.661Z,1023.13
2017-12-23T09:33:58.660Z,1023.01
2017-12-23T09:35:51.575Z,1023.07
2017-12-23T09:36:51.572Z,1023.17
2017-12-23T09:38:44.487Z,1023.12
2017-12-23T09:39:44.490Z,1023.30
2017-12-23T09:41:37.398Z,1023.16
2017-12-23T09:42:37.411Z,1022.90
2017-12-23T09:44:30.551Z,1023.04
2017-12-23T09:45:30.541Z,1022.88
2017-12-23T09:47:23.490Z,1022.91
2017-12-23T09:48:23.482Z,1022.84
2017-12-23T09:50:16.412Z,1022.85
2017-12-23T09:51:16.396Z,1022.80
2017-12-23T09:53:09.301Z,1022.80
2017-12-23T09:54:09.313Z,1022.77
2017-12-23T09:56:02.226Z,1022.69
2017-12-23T09:57:02.234Z,1022.79
2017-12-23T09:58:55.149Z,1022.85
2017-12-23T09:59:55.148Z,1023.16
2017-12-23T10:01:48.048Z,1022.73
2017-12-23T10:02:48.060Z,1022.85
2017-12-23T10:04:40.987Z,1022.92
2017-12-23T10:05:40.986Z,1022.89
2017-12-23T10:07:33.888Z,1022.92
2017-12-23T10:08:33.910Z,1022.72
2017-12-23T10:10:27.735Z,1022.73
2017-12-23T10:11:27.740Z,1022.63
2017-12-23T10:13:20.747Z,1022.56
2017-12-23T10:14:20.665Z,1022.84
2017-12-23T10:16:14.332Z,1022.77
2017-12-23T10:17:14.314Z,1022.86
2017-12-23T10:19:07.268Z,1022.79
2017-12-23T10:20:07.245Z,1022.71
2017-12-23T10:22:00.708Z,1022.78
2017-12-23T10:23:00.684Z,1022.73
2017-12-23T10:24:53.630Z,1022.59
2017-12-23T10:25:53.630Z,1022.64
2017-12-23T10:27:46.560Z,1022.59
2017-12-23T10:28:46.555Z,1022.79
2017-12-23T10:30:39.474Z,1022.63
2017-12-23T10:31:39.487Z,1022.70
2017-12-23T10:33:32.407Z,1022.66
2017-12-23T10:34:32.411Z,1022.55
2017-12-23T10:36:26.077Z,1022.55
2017-12-23T10:37:26.076Z,1022.74
2017-12-23T10:39:19.015Z,1022.59
2017-12-23T10:40:19.016Z,1022.57
2017-12-23T10:42:11.934Z,1022.53
2017-12-23T10:43:11.928Z,1022.37
2017-12-23T10:45:04.848Z,1022.51
2017-12-23T10:46:04.845Z,1022.87
2017-12-23T10:47:57.767Z,1022.52
2017-12-23T10:48:57.786Z,1022.51
2017-12-23T10:50:50.722Z,1022.38
2017-12-23T10:51:50.706Z,1022.27
2017-12-23T10:53:43.802Z,1022.30
2017-12-23T10:54:43.799Z,1022.37
2017-12-23T10:56:36.730Z,1022.28
2017-12-23T10:57:36.740Z,1022.28
2017-12-23T10:59:29.687Z,1022.23
2017-12-23T11:00:29.659Z,1022.78
2017-12-23T11:02:22.591Z,1022.16
2017-12-23T11:03:22.574Z,1022.18
2017-12-23T11:05:16.495Z,1022.12
2017-12-23T11:06:16.494Z,1022.06
2017-12-23T11:08:09.433Z,1022.00
2017-12-23T11:09:09.419Z,1022.04
2017-12-23T11:11:02.335Z,1022.06
2017-12-23T11:12:02.343Z,1021.93
2017-12-23T11:13:55.307Z,1022.16
2017-12-23T11:14:55.271Z,1022.01
2017-12-23T11:16:48.184Z,1022.17
2017-12-23T11:17:48.194Z,1021.95
2017-12-23T11:19:41.129Z,1021.98
2017-12-23T11:20:41.112Z,1021.95
2017-12-23T11:22:34.035Z,1021.82
2017-12-23T11:23:34.026Z,1021.99
2017-12-23T11:25:26.987Z,1021.98
2017-12-23T11:26:26.945Z,1021.95
2017-12-23T11:28:19.853Z,1021.86
2017-12-23T11:29:19.865Z,1021.88
2017-12-23T11:31:12.788Z,1021.79
2017-12-23T11:32:12.794Z,1021.81
2017-12-23T11:34:05.698Z,1021.94
2017-12-23T11:35:05.713Z,1021.78
2017-12-23T11:36:58.653Z,1021.80
2017-12-23T11:37:58.633Z,1021.86
2017-12-23T11:39:51.537Z,1021.66
2017-12-23T11:40:51.550Z,1021.66
2017-12-23T11:42:44.468Z,1021.71
2017-12-23T11:43:44.468Z,1021.86
2017-12-23T11:45:37.379Z,1021.76
2017-12-23T11:46:37.387Z,1021.72
2017-12-23T11:48:30.313Z,1021.88
2017-12-23T11:49:30.308Z,1021.81
2017-12-23T11:51:23.219Z,1021.74
2017-12-23T11:52:23.242Z,1021.57
2017-12-23T11:54:16.192Z,1021.83
2017-12-23T11:55:16.164Z,1021.54
2017-12-23T11:57:09.049Z,1021.64
2017-12-23T11:58:09.069Z,1021.72
2017-12-23T12:00:02.002Z,1021.63
2017-12-23T12:01:01.981Z,1021.57
2017-12-23T12:02:54.889Z,1021.42
2017-12-23T12:03:54.922Z,1021.58
2017-12-23T12:05:47.822Z,1021.46
2017-12-23T12:06:47.847Z,1021.53
2017-12-23T12:08:40.754Z,1021.62
2017-12-23T12:09:40.753Z,1021.49
2017-12-23T12:11:33.660Z,1021.49
2017-12-23T12:12:33.667Z,1021.44
2017-12-23T12:14:26.605Z,1021.57
2017-12-23T12:15:26.594Z,1021.60
2017-12-23T12:17:19.521Z,1021.57
2017-12-23T12:18:19.537Z,1021.67
2017-12-23T12:20:12.478Z,1021.49
2017-12-23T12:21:12.463Z,1021.41
2017-12-23T12:23:05.373Z,1021.52
2017-12-23T12:24:05.389Z,1021.59
2017-12-23T12:25:58.324Z,1021.39
2017-12-23T12:26:58.330Z,1021.38
2017-12-23T12:28:51.236Z,1021.44
2017-12-23T12:29:51.249Z,1021.39
2017-12-23T12:31:46.477Z,1021.32
2017-12-23T12:32:53.710Z,1021.53
2017-12-23T12:34:39.369Z,1021.47
2017-12-23T12:35:40.097Z,1021.51
2017-12-23T12:37:32.307Z,1021.34
2017-12-23T12:38:32.363Z,1021.38
2017-12-23T12:40:25.217Z,1021.32
2017-12-23T12:41:25.234Z,1021.41
2017-12-23T12:43:18.148Z,1021.39
2017-12-23T12:44:18.150Z,1021.36
2017-12-23T12:46:11.068Z,1021.25
2017-12-23T12:47:11.068Z,1021.27
2017-12-23T12:49:04.004Z,1021.34
2017-12-23T12:50:03.989Z,1021.31
2017-12-23T12:51:56.924Z,1021.32
2017-12-23T12:52:57.806Z,1021.51
2017-12-23T12:54:49.938Z,1021.17
2017-12-23T12:55:49.995Z,1021.27
2017-12-23T12:57:43.461Z,1021.23
2017-12-23T12:58:43.007Z,1021.15
2017-12-23T13:02:13.928Z,1021.00
2017-12-23T13:04:06.746Z,1021.21
2017-12-23T13:05:06.760Z,1021.07
2017-12-23T13:06:59.697Z,1021.06
2017-12-23T13:07:59.728Z,1021.16
2017-12-23T13:09:52.621Z,1021.02
2017-12-23T13:10:52.645Z,1020.98
2017-12-23T13:12:45.610Z,1021.00
2017-12-23T13:13:45.576Z,1021.04
2017-12-23T13:15:38.596Z,1020.96
2017-12-23T13:16:38.536Z,1020.94
2017-12-23T13:18:31.467Z,1020.94
2017-12-23T13:19:31.469Z,1021.06
2017-12-23T13:21:31.844Z,1021.05
2017-12-23T13:23:40.039Z,1021.47
2017-12-23T13:24:40.083Z,1021.03
2017-12-23T13:26:33.019Z,1021.03
2017-12-23T13:29:25.910Z,1020.94
2017-12-23T13:30:26.001Z,1021.48
2017-12-23T13:32:18.875Z,1020.99
2017-12-23T13:33:18.881Z,1020.85
2017-12-23T13:35:11.773Z,1020.79
2017-12-23T13:36:11.847Z,1020.70
2017-12-23T13:38:04.795Z,1021.00
2017-12-23T13:39:04.745Z,1020.79
2017-12-23T13:40:58.186Z,1020.64
2017-12-23T13:41:58.304Z,1020.97
2017-12-23T13:43:51.179Z,1020.79
2017-12-23T13:44:51.126Z,1020.67
2017-12-23T13:46:44.070Z,1020.65
2017-12-23T13:47:44.047Z,1020.74
2017-12-23T13:49:37.005Z,1020.66
2017-12-23T13:50:37.796Z,1021.03
2017-12-23T13:52:30.983Z,1020.70
2017-12-23T13:53:31.121Z,1020.82
2017-12-23T13:55:23.215Z,1020.84
2017-12-23T13:56:23.233Z,1020.81
2017-12-23T13:58:16.134Z,1020.80
2017-12-23T13:59:16.149Z,1020.82
2017-12-23T14:01:09.114Z,1020.78
2017-12-23T14:02:09.108Z,1020.77
2017-12-23T14:04:02.031Z,1020.86
2017-12-23T14:05:02.068Z,1020.82
2017-12-23T14:06:54.977Z,1020.86
2017-12-23T14:07:54.983Z,1020.76
2017-12-23T14:09:47.913Z,1020.71
2017-12-23T14:10:47.931Z,1020.78
2017-12-23T14:12:40.858Z,1021.01
2017-12-23T14:13:40.878Z,1020.97
2017-12-23T14:15:33.809Z,1020.80
2017-12-23T14:16:33.827Z,1020.82
2017-12-23T14:18:26.756Z,1020.96
2017-12-23T14:19:26.762Z,1020.90
2017-12-23T14:21:19.657Z,1020.81
2017-12-23T14:22:19.671Z,1020.83
2017-12-23T14:24:12.592Z,1020.72
2017-12-23T14:25:12.592Z,1020.77
2017-12-23T14:27:05.493Z,1020.83
2017-12-23T14:28:05.511Z,1020.83
2017-12-23T14:29:58.449Z,1020.92
2017-12-23T14:30:58.428Z,1021.24
2017-12-23T14:32:51.382Z,1020.86
2017-12-23T14:33:51.356Z,1020.77
2017-12-23T14:35:44.292Z,1020.87
2017-12-23T14:36:44.283Z,1020.98
2017-12-23T14:38:37.193Z,1020.77
2017-12-23T14:39:37.206Z,1020.89
2017-12-23T14:41:30.143Z,1020.72
2017-12-23T14:42:30.125Z,1020.71
2017-12-23T14:44:23.035Z,1020.66
2017-12-23T14:45:23.046Z,1020.69
2017-12-23T14:47:16.015Z,1020.64
2017-12-23T14:48:15.964Z,1020.52
2017-12-23T14:50:08.869Z,1020.58
2017-12-23T14:51:08.888Z,1020.56
2017-12-23T14:53:01.818Z,1020.61
2017-12-23T14:54:01.808Z,1020.59
2017-12-23T14:55:54.934Z,1020.66
2017-12-23T14:56:54.942Z,1020.58
2017-12-23T14:58:47.873Z,1020.59
2017-12-23T14:59:47.854Z,1020.74
2017-12-23T15:01:40.762Z,1020.36
2017-12-23T15:02:40.798Z,1020.51
2017-12-23T15:04:34.231Z,1020.48
2017-12-23T15:05:34.225Z,1020.66
2017-12-23T15:07:27.141Z,1020.48
2017-12-23T15:08:27.140Z,1020.34
2017-12-23T15:10:20.057Z,1020.11
2017-12-23T15:11:20.084Z,1020.22
2017-12-23T15:13:12.989Z,1020.03
2017-12-23T15:14:12.983Z,1020.03
2017-12-23T15:16:05.886Z,1020.11
2017-12-23T15:17:05.903Z,1020.20
2017-12-23T15:18:58.814Z,1020.11
2017-12-23T15:19:58.819Z,1020.14
2017-12-23T15:21:51.756Z,1020.05
2017-12-23T15:22:51.738Z,1020.05
2017-12-23T15:24:44.639Z,1020.11
2017-12-23T15:25:44.653Z,1020.08
2017-12-23T15:27:37.598Z,1020.14
2017-12-23T15:28:37.576Z,1020.11
2017-12-23T15:30:30.475Z,1020.16
2017-12-23T15:31:30.491Z,1020.13
2017-12-23T15:33:23.426Z,1020.12
2017-12-23T15:34:23.407Z,1020.15
2017-12-23T15:36:16.309Z,1020.19
2017-12-23T15:37:16.351Z,1020.16
2017-12-23T15:39:09.240Z,1020.13
2017-12-23T15:40:09.241Z,1020.22
2017-12-23T15:42:02.154Z,1020.20
2017-12-23T15:43:02.193Z,1020.18
2017-12-23T15:44:55.088Z,1020.26
2017-12-23T15:45:55.089Z,1020.17
2017-12-23T15:47:48.112Z,1020.18
2017-12-23T15:48:48.152Z,1020.08
2017-12-23T15:50:41.118Z,1020.12
2017-12-23T15:51:41.073Z,1020.13
2017-12-23T15:53:35.154Z,1020.29
2017-12-23T15:54:34.968Z,1020.02
2017-12-23T15:56:31.036Z,1020.39
2017-12-23T15:57:31.026Z,1020.10
2017-12-23T15:59:24.354Z,1020.18
2017-12-23T16:00:23.965Z,1020.18
2017-12-23T16:02:17.863Z,1020.15
2017-12-23T16:03:17.687Z,1020.22
2017-12-23T16:05:11.458Z,1019.91
2017-12-23T16:06:11.289Z,1019.96
2017-12-23T16:08:04.213Z,1019.94
2017-12-23T16:09:04.226Z,1019.94
2017-12-23T16:10:58.674Z,1019.94
2017-12-23T16:11:58.361Z,1019.95
2017-12-23T16:13:51.283Z,1019.90
2017-12-23T16:14:51.300Z,1019.96
2017-12-23T16:16:44.246Z,1019.86
2017-12-23T16:17:44.226Z,1019.82
2017-12-23T16:19:37.141Z,1020.16
2017-12-23T16:20:37.160Z,1019.88
2017-12-23T16:22:30.073Z,1019.89
2017-12-23T16:23:30.094Z,1019.86
2017-12-23T16:25:23.481Z,1020.12
2017-12-23T16:26:23.526Z,1019.92
2017-12-23T16:28:17.405Z,1019.92
2017-12-23T16:29:17.383Z,1019.85
2017-12-23T16:31:10.309Z,1019.86
2017-12-23T16:32:10.312Z,1019.87
2017-12-23T16:34:03.763Z,1019.76
2017-12-23T16:35:03.796Z,1019.72
2017-12-23T16:36:56.905Z,1019.72
2017-12-23T16:37:56.923Z,1019.65
2017-12-23T16:39:49.847Z,1019.65
2017-12-23T16:40:49.875Z,1019.65
2017-12-23T16:42:43.965Z,1019.63
2017-12-23T16:43:43.978Z,1019.73
2017-12-23T16:45:36.962Z,1019.71
2017-12-23T16:46:36.941Z,1019.73
2017-12-23T16:48:30.114Z,1019.78
2017-12-23T16:49:29.903Z,1019.74
2017-12-23T16:51:22.902Z,1019.59
2017-12-23T16:52:22.875Z,1019.81
2017-12-23T16:54:16.356Z,1019.48
2017-12-23T16:55:16.344Z,1019.39
2017-12-23T16:57:09.254Z,1019.46
2017-12-23T16:58:09.255Z,1019.44
2017-12-23T17:00:02.156Z,1019.52
2017-12-23T17:01:02.161Z,1019.43
2017-12-23T17:02:55.099Z,1019.68
2017-12-23T17:03:55.110Z,1019.63
2017-12-23T17:05:47.993Z,1019.48
2017-12-23T17:06:48.019Z,1019.58
2017-12-23T17:08:40.924Z,1019.50
2017-12-23T17:09:40.944Z,1019.62
2017-12-23T17:11:33.840Z,1019.37
2017-12-23T17:12:33.856Z,1019.43
2017-12-23T17:14:26.890Z,1019.48
2017-12-23T17:15:26.900Z,1019.47
2017-12-23T17:17:19.825Z,1019.31
2017-12-23T17:18:19.830Z,1019.33
2017-12-23T17:20:12.824Z,1019.23
2017-12-23T17:21:12.773Z,1019.29
2017-12-23T17:23:06.401Z,1019.22
2017-12-23T17:24:06.665Z,1019.31
2017-12-23T17:25:59.385Z,1019.14
2017-12-23T17:26:59.415Z,1019.16
2017-12-23T17:28:52.855Z,1019.26
2017-12-23T17:29:52.846Z,1019.14